createdAt,value
2024-04-23T00:00:42.707Z,989.16
2024-04-23T00:01:42.683Z,989.15
2024-04-23T00:02:42.695Z,989.14
2024-04-23T00:03:42.707Z,989.15
2024-04-23T00:04:42.819Z,989.16
2024-04-23T00:05:42.645Z,989.16
2024-04-23T00:06:42.635Z,989.18
2024-04-23T00:07:42.686Z,989.19
2024-04-23T00:08:42.633Z,989.18
2024-04-23T00:09:42.604Z,989.17
2024-04-23T00:10:42.655Z,989.16
2024-04-23T00:11:42.622Z,989.14
2024-04-23T00:12:42.574Z,989.12
2024-04-23T00:13:42.619Z,989.11
2024-04-23T00:14:42.564Z,989.11
2024-04-23T00:15:42.551Z,989.11
2024-04-23T00:16:42.611Z,989.11
2024-04-23T00:17:42.642Z,989.11
2024-04-23T00:18:42.629Z,989.09
2024-04-23T00:19:42.529Z,989.08
2024-04-23T00:20:42.494Z,989.07
2024-04-23T00:21:42.498Z,989.06
2024-04-23T00:22:42.488Z,989.05
2024-04-23T00:23:42.452Z,989.06
2024-04-23T00:24:42.473Z,989.05
2024-04-23T00:25:42.497Z,989.06
2024-04-23T00:26:42.423Z,989.08
2024-04-23T00:27:42.412Z,989.08
2024-04-23T00:28:42.494Z,989.08
2024-04-23T00:29:42.396Z,989.07
2024-04-23T00:30:42.385Z,989.07
2024-04-23T00:31:42.377Z,989.06
2024-04-23T00:32:42.392Z,989.06
2024-04-23T00:33:42.352Z,989.05
2024-04-23T00:34:42.383Z,989.04
2024-04-23T00:35:42.333Z,989.05
2024-04-23T00:36:42.331Z,989.04
2024-04-23T00:37:42.367Z,989.04
2024-04-23T00:38:42.352Z,989.03
2024-04-23T00:39:42.332Z,989.03
2024-04-23T00:40:42.326Z,989.04
2024-04-23T00:41:42.288Z,989.04
2024-04-23T00:42:42.279Z,989.03
2024-04-23T00:43:42.273Z,989.02
2024-04-23T00:44:42.289Z,989.01
2024-04-23T00:45:42.229Z,989.00
2024-04-23T00:46:42.271Z,988.99
2024-04-23T00:47:42.230Z,988.98
2024-04-23T00:48:42.204Z,988.97
2024-04-23T00:49:42.259Z,988.97
2024-04-23T00:50:42.205Z,988.97
2024-04-23T00:51:42.173Z,988.97
2024-04-23T00:52:42.182Z,988.98
2024-04-23T00:53:42.145Z,988.97
2024-04-23T00:54:42.141Z,988.97
2024-04-23T00:55:42.192Z,988.97
2024-04-23T00:56:42.118Z,988.96
2024-04-23T00:57:42.102Z,988.96
2024-04-23T00:58:43.927Z,988.94
2024-04-23T00:59:42.083Z,988.93
2024-04-23T01:00:42.098Z,988.92
2024-04-23T01:01:42.132Z,988.91
2024-04-23T01:02:42.141Z,988.90
2024-04-23T01:03:42.039Z,988.89
2024-04-23T01:04:42.069Z,988.89
2024-04-23T01:05:42.037Z,988.90
2024-04-23T01:06:42.032Z,988.91
2024-04-23T01:07:42.074Z,988.92
2024-04-23T01:08:42.013Z,988.93
2024-04-23T01:09:41.995Z,988.92
2024-04-23T01:10:42.027Z,988.93
2024-04-23T01:11:42.005Z,988.94
2024-04-23T01:12:41.951Z,988.94
2024-04-23T01:13:42.004Z,988.95
2024-04-23T01:14:41.928Z,988.96
2024-04-23T01:15:41.913Z,988.98
2024-04-23T01:16:41.938Z,988.99
2024-04-23T01:17:42.017Z,988.99
2024-04-23T01:18:41.885Z,988.98
2024-04-23T01:19:41.962Z,988.98
2024-04-23T01:20:41.882Z,988.99
2024-04-23T01:21:41.854Z,988.98
2024-04-23T01:22:41.876Z,988.98
2024-04-23T01:23:41.841Z,988.97
2024-04-23T01:24:41.830Z,988.97
2024-04-23T01:25:42.003Z,988.97
2024-04-23T01:26:41.800Z,988.96
2024-04-23T01:27:41.789Z,988.96
2024-04-23T01:28:41.837Z,988.95
2024-04-23T01:29:41.767Z,988.95
2024-04-23T01:30:41.766Z,988.94
2024-04-23T01:31:41.794Z,988.94
2024-04-23T01:32:41.814Z,988.93
2024-04-23T01:33:41.822Z,988.92
2024-04-23T01:34:41.798Z,988.91
2024-04-23T01:35:41.713Z,988.90
2024-04-23T01:36:41.730Z,988.90
2024-04-23T01:37:41.759Z,988.88
2024-04-23T01:38:41.697Z,988.87
2024-04-23T01:39:41.757Z,988.85
2024-04-23T01:40:41.672Z,988.83
2024-04-23T01:41:41.668Z,988.82
2024-04-23T01:42:41.646Z,988.82
2024-04-23T01:43:41.669Z,988.80
2024-04-23T01:44:41.634Z,988.80
2024-04-23T01:45:41.614Z,988.79
2024-04-23T01:46:41.661Z,988.80
2024-04-23T01:47:41.676Z,988.79
2024-04-23T01:48:41.593Z,988.78
2024-04-23T01:49:41.617Z,988.78
2024-04-23T01:50:41.555Z,988.77
2024-04-23T01:51:41.550Z,988.75
2024-04-23T01:52:41.553Z,988.73
2024-04-23T01:53:41.541Z,988.72
2024-04-23T01:54:41.536Z,988.71
2024-04-23T01:55:41.535Z,988.69
2024-04-23T01:56:41.484Z,988.69
2024-04-23T01:57:41.491Z,988.68
2024-04-23T01:58:41.518Z,988.68
2024-04-23T01:59:41.467Z,988.67
2024-04-23T02:00:41.523Z,988.67
2024-04-23T02:01:41.456Z,988.66
2024-04-23T02:02:41.445Z,988.66
2024-04-23T02:03:41.506Z,988.66
2024-04-23T02:04:41.425Z,988.65
2024-04-23T02:05:41.390Z,988.65
2024-04-23T02:06:41.377Z,988.65
2024-04-23T02:07:41.411Z,988.65
2024-04-23T02:08:41.389Z,988.65
2024-04-23T02:09:41.354Z,988.64
2024-04-23T02:10:41.636Z,988.63
2024-04-23T02:11:41.360Z,988.64
2024-04-23T02:12:41.329Z,988.64
2024-04-23T02:13:41.371Z,988.63
2024-04-23T02:14:41.297Z,988.61
2024-04-23T02:15:41.279Z,988.59
2024-04-23T02:16:41.310Z,988.57
2024-04-23T02:17:41.353Z,988.57
2024-04-23T02:18:41.338Z,988.55
2024-04-23T02:19:41.255Z,988.54
2024-04-23T02:20:41.236Z,988.53
2024-04-23T02:21:41.227Z,988.52
2024-04-23T02:22:41.243Z,988.52
2024-04-23T02:23:41.218Z,988.52
2024-04-23T02:24:41.194Z,988.52
2024-04-23T02:25:41.217Z,988.52
2024-04-23T02:26:41.181Z,988.50
2024-04-23T02:27:41.180Z,988.49
2024-04-23T02:28:41.239Z,988.48
2024-04-23T02:29:41.202Z,988.47
2024-04-23T02:30:41.170Z,988.45
2024-04-23T02:31:41.213Z,988.45
2024-04-23T02:32:41.253Z,988.46
2024-04-23T02:33:41.324Z,988.46
2024-04-23T02:34:41.211Z,988.47
2024-04-23T02:35:41.216Z,988.48
2024-04-23T02:36:41.091Z,988.48
2024-04-23T02:37:41.084Z,988.47
2024-04-23T02:38:41.066Z,988.46
2024-04-23T02:39:41.074Z,988.45
2024-04-23T02:40:41.057Z,988.44
2024-04-23T02:41:41.040Z,988.43
2024-04-23T02:42:41.013Z,988.42
2024-04-23T02:43:41.030Z,988.42
2024-04-23T02:44:41.043Z,988.41
2024-04-23T02:45:40.986Z,988.41
2024-04-23T02:46:41.034Z,988.40
2024-04-23T02:47:41.034Z,988.39
2024-04-23T02:48:41.050Z,988.38
2024-04-23T02:49:41.014Z,988.37
2024-04-23T02:50:40.950Z,988.38
2024-04-23T02:51:40.930Z,988.38
2024-04-23T02:52:40.924Z,988.38
2024-04-23T02:53:40.914Z,988.37
2024-04-23T02:54:40.889Z,988.37
2024-04-23T02:55:40.934Z,988.36
2024-04-23T02:56:40.868Z,988.35
2024-04-23T02:57:40.862Z,988.36
2024-04-23T02:58:40.878Z,988.35
2024-04-23T02:59:40.852Z,988.36
2024-04-23T03:00:40.879Z,988.35
2024-04-23T03:01:40.872Z,988.35
2024-04-23T03:02:40.854Z,988.35
2024-04-23T03:03:40.906Z,988.35
2024-04-23T03:04:40.834Z,988.36
2024-04-23T03:05:40.801Z,988.36
2024-04-23T03:06:40.800Z,988.37
2024-04-23T03:07:40.819Z,988.37
2024-04-23T03:08:40.795Z,988.37
2024-04-23T03:09:40.761Z,988.37
2024-04-23T03:10:40.772Z,988.36
2024-04-23T03:11:40.777Z,988.36
2024-04-23T03:12:40.714Z,988.35
2024-04-23T03:13:40.760Z,988.35
2024-04-23T03:14:40.696Z,988.35
2024-04-23T03:15:40.688Z,988.35
2024-04-23T03:16:40.754Z,988.36
2024-04-23T03:17:40.850Z,988.37
2024-04-23T03:18:40.691Z,988.39
2024-04-23T03:19:40.683Z,988.40
2024-04-23T03:20:40.628Z,988.41
2024-04-23T03:21:40.651Z,988.40
2024-04-23T03:22:40.655Z,988.40
2024-04-23T03:23:40.611Z,988.40
2024-04-23T03:24:40.587Z,988.39
2024-04-23T03:25:41.061Z,988.39
2024-04-23T03:26:40.607Z,988.38
2024-04-23T03:27:40.592Z,988.38
2024-04-23T03:28:40.568Z,988.37
2024-04-23T03:29:40.543Z,988.36
2024-04-23T03:30:40.531Z,988.35
2024-04-23T03:31:40.644Z,988.35
2024-04-23T03:32:40.733Z,988.34
2024-04-23T03:33:40.503Z,988.33
2024-04-23T03:34:40.512Z,988.32
2024-04-23T03:35:40.508Z,988.31
2024-04-23T03:36:40.604Z,988.31
2024-04-23T03:37:40.550Z,988.31
2024-04-23T03:38:40.483Z,988.32
2024-04-23T03:39:40.466Z,988.32
2024-04-23T03:40:40.478Z,988.31
2024-04-23T03:41:40.448Z,988.31
2024-04-23T03:42:40.435Z,988.29
2024-04-23T03:43:40.425Z,988.29
2024-04-23T03:44:41.607Z,988.28
2024-04-23T03:45:40.407Z,988.28
2024-04-23T03:46:40.496Z,988.28
2024-04-23T03:47:40.514Z,988.28
2024-04-23T03:48:40.406Z,988.29
2024-04-23T03:49:40.383Z,988.29
2024-04-23T03:50:40.356Z,988.29
2024-04-23T03:51:40.353Z,988.30
2024-04-23T03:52:40.345Z,988.31
2024-04-23T03:53:40.356Z,988.31
2024-04-23T03:54:40.320Z,988.31
2024-04-23T03:55:40.314Z,988.29
2024-04-23T03:56:40.282Z,988.28
2024-04-23T03:57:40.281Z,988.26
2024-04-23T03:58:40.307Z,988.25
2024-04-23T03:59:40.275Z,988.25
2024-04-23T04:00:40.350Z,988.25
2024-04-23T04:01:40.366Z,988.25
2024-04-23T04:02:40.436Z,988.25
2024-04-23T04:03:40.283Z,988.27
2024-04-23T04:04:40.234Z,988.29
2024-04-23T04:05:40.237Z,988.30
2024-04-23T04:06:40.195Z,988.30
2024-04-23T04:07:40.196Z,988.31
2024-04-23T04:08:40.182Z,988.30
2024-04-23T04:09:40.181Z,988.31
2024-04-23T04:10:40.202Z,988.31
2024-04-23T04:11:40.257Z,988.32
2024-04-23T04:12:40.122Z,988.33
2024-04-23T04:13:40.143Z,988.32
2024-04-23T04:14:40.113Z,988.34
2024-04-23T04:15:40.113Z,988.34
2024-04-23T04:16:40.159Z,988.34
2024-04-23T04:17:40.504Z,988.35
2024-04-23T04:18:40.079Z,988.36
2024-04-23T04:19:40.061Z,988.36
2024-04-23T04:20:40.053Z,988.37
2024-04-23T04:21:40.158Z,988.36
2024-04-23T04:22:40.049Z,988.35
2024-04-23T04:23:40.049Z,988.35
2024-04-23T04:24:40.032Z,988.34
2024-04-23T04:25:40.165Z,988.34
2024-04-23T04:26:40.042Z,988.35
2024-04-23T04:27:39.988Z,988.35
2024-04-23T04:28:40.016Z,988.36
2024-04-23T04:29:39.984Z,988.36
2024-04-23T04:30:39.982Z,988.35
2024-04-23T04:31:40.017Z,988.35
2024-04-23T04:32:40.032Z,988.34
2024-04-23T04:33:39.921Z,988.34
2024-04-23T04:34:39.945Z,988.35
2024-04-23T04:35:39.967Z,988.37
2024-04-23T04:36:39.909Z,988.37
2024-04-23T04:37:39.917Z,988.39
2024-04-23T04:38:39.897Z,988.40
2024-04-23T04:39:39.870Z,988.42
2024-04-23T04:40:39.870Z,988.43
2024-04-23T04:41:39.870Z,988.44
2024-04-23T04:42:39.840Z,988.44
2024-04-23T04:43:39.843Z,988.44
2024-04-23T04:44:39.836Z,988.44
2024-04-23T04:45:39.806Z,988.44
2024-04-23T04:46:39.834Z,988.43
2024-04-23T04:47:39.941Z,988.42
2024-04-23T04:48:39.836Z,988.41
2024-04-23T04:49:39.826Z,988.41
2024-04-23T04:50:39.764Z,988.41
2024-04-23T04:51:39.742Z,988.40
2024-04-23T04:52:39.802Z,988.40
2024-04-23T04:53:39.749Z,988.40
2024-04-23T04:54:39.719Z,988.40
2024-04-23T04:55:39.752Z,988.40
2024-04-23T04:56:39.697Z,988.38
2024-04-23T04:57:39.687Z,988.37
2024-04-23T04:58:39.723Z,988.35
2024-04-23T04:59:39.704Z,988.34
2024-04-23T05:00:42.422Z,988.32
2024-04-23T05:01:39.670Z,988.30
2024-04-23T05:02:39.693Z,988.29
2024-04-23T05:03:39.652Z,988.26
2024-04-23T05:04:39.652Z,988.25
2024-04-23T05:05:39.659Z,988.24
2024-04-23T05:06:39.607Z,988.22
2024-04-23T05:07:39.619Z,988.22
2024-04-23T05:08:39.588Z,988.21
2024-04-23T05:09:39.575Z,988.21
2024-04-23T05:10:39.569Z,988.20
2024-04-23T05:11:39.594Z,988.20
2024-04-23T05:12:39.565Z,988.19
2024-04-23T05:13:39.552Z,988.18
2024-04-23T05:14:39.529Z,988.18
2024-04-23T05:15:39.504Z,988.19
2024-04-23T05:16:39.513Z,988.19
2024-04-23T05:17:39.607Z,988.20
2024-04-23T05:18:39.505Z,988.21
2024-04-23T05:19:39.535Z,988.21
2024-04-23T05:20:39.481Z,988.21
2024-04-23T05:21:39.461Z,988.21
2024-04-23T05:22:39.456Z,988.20
2024-04-23T05:23:39.455Z,988.20
2024-04-23T05:24:39.413Z,988.21
2024-04-23T05:25:39.427Z,988.21
2024-04-23T05:29:01.101Z,988.19
2024-04-23T05:30:02.054Z,988.18
2024-04-23T05:31:02.006Z,988.19
2024-04-23T05:32:02.180Z,988.19
2024-04-23T05:33:03.696Z,988.18
2024-04-23T05:34:01.985Z,988.19
2024-04-23T05:35:02.143Z,988.19
2024-04-23T05:36:01.965Z,988.20
2024-04-23T05:37:01.999Z,988.22
2024-04-23T05:38:02.126Z,988.23
2024-04-23T05:39:01.943Z,988.24
2024-04-23T05:40:01.939Z,988.23
2024-04-23T05:41:01.979Z,988.22
2024-04-23T05:42:01.899Z,988.21
2024-04-23T05:43:01.900Z,988.19
2024-04-23T05:44:02.019Z,988.18
2024-04-23T05:45:01.912Z,988.17
2024-04-23T05:46:01.843Z,988.18
2024-04-23T05:47:01.948Z,988.18
2024-04-23T05:48:01.896Z,988.19
2024-04-23T05:49:01.823Z,988.19
2024-04-23T05:50:02.006Z,988.18
2024-04-23T05:51:01.842Z,988.18
2024-04-23T05:52:04.968Z,988.17
2024-04-23T05:53:01.852Z,988.16
2024-04-23T05:54:01.758Z,988.16
2024-04-23T05:55:01.752Z,988.17
2024-04-23T05:56:01.795Z,988.18
2024-04-23T05:57:01.755Z,988.19
2024-04-23T05:58:01.741Z,988.19
2024-04-23T05:59:01.772Z,988.19
2024-04-23T06:00:01.706Z,988.18
2024-04-23T06:01:01.738Z,988.17
2024-04-23T06:02:01.717Z,988.17
2024-04-23T06:03:01.714Z,988.16
2024-04-23T06:04:01.669Z,988.18
2024-04-23T06:05:01.794Z,988.18
2024-04-23T06:06:01.647Z,988.19
2024-04-23T06:07:01.633Z,988.19
2024-04-23T06:08:01.773Z,988.19
2024-04-23T06:09:01.604Z,988.19
2024-04-23T06:10:01.599Z,988.17
2024-04-23T06:11:01.840Z,988.16
2024-04-23T06:12:01.633Z,988.13
2024-04-23T06:13:01.594Z,988.11
2024-04-23T06:14:01.605Z,988.12
2024-04-23T06:15:01.536Z,988.12
2024-04-23T06:16:01.551Z,988.12
2024-04-23T06:17:01.632Z,988.13
2024-04-23T06:18:01.597Z,988.15
2024-04-23T06:19:01.568Z,988.15
2024-04-23T06:20:01.515Z,988.15
2024-04-23T06:21:01.479Z,988.15
2024-04-23T06:22:01.466Z,988.15
2024-04-23T06:23:01.594Z,988.13
2024-04-23T06:24:01.461Z,988.13
2024-04-23T06:25:01.435Z,988.13
2024-04-23T06:26:01.506Z,988.13
2024-04-23T06:27:01.433Z,988.14
2024-04-23T06:28:01.431Z,988.15
2024-04-23T06:29:01.489Z,988.16
2024-04-23T06:30:01.383Z,988.18
2024-04-23T06:31:01.435Z,988.18
2024-04-23T06:32:01.451Z,988.19
2024-04-23T06:33:01.741Z,988.19
2024-04-23T06:34:01.348Z,988.18
2024-04-23T06:35:01.467Z,988.16
2024-04-23T06:36:01.327Z,988.16
2024-04-23T06:37:01.312Z,988.18
2024-04-23T06:38:01.366Z,988.17
2024-04-23T06:39:01.296Z,988.17
2024-04-23T06:40:06.704Z,988.18
2024-04-23T06:41:01.329Z,988.18
2024-04-23T06:42:01.262Z,988.17
2024-04-23T06:43:01.280Z,988.16
2024-04-23T06:44:01.356Z,988.15
2024-04-23T06:45:01.232Z,988.15
2024-04-23T06:46:01.265Z,988.13
2024-04-23T06:47:01.275Z,988.15
2024-04-23T06:48:01.299Z,988.14
2024-04-23T06:49:01.205Z,988.12
2024-04-23T06:50:01.668Z,988.12
2024-04-23T06:51:01.187Z,988.12
2024-04-23T06:52:01.183Z,988.11
2024-04-23T06:53:02.700Z,988.12
2024-04-23T06:54:01.166Z,988.12
2024-04-23T06:55:01.139Z,988.11
2024-04-23T06:56:01.192Z,988.11
2024-04-23T06:57:01.114Z,988.11
2024-04-23T06:58:01.113Z,988.10
2024-04-23T06:59:01.141Z,988.07
2024-04-23T07:00:01.092Z,988.06
2024-04-23T07:01:01.160Z,988.07
2024-04-23T07:02:01.094Z,988.05
2024-04-23T07:03:01.107Z,988.06
2024-04-23T07:04:01.093Z,988.06
2024-04-23T07:05:01.032Z,988.06
2024-04-23T07:06:01.026Z,988.04
2024-04-23T07:07:01.033Z,988.03
2024-04-23T07:08:01.073Z,988.02
2024-04-23T07:09:01.002Z,988.02
2024-04-23T07:10:00.998Z,987.99
2024-04-23T07:11:01.055Z,988.00
2024-04-23T07:12:00.982Z,987.98
2024-04-23T07:13:00.948Z,987.98
2024-04-23T07:14:01.021Z,987.98
2024-04-23T07:15:00.942Z,987.97
2024-04-23T07:16:00.972Z,987.97
2024-04-23T07:17:01.041Z,987.92
2024-04-23T07:18:01.027Z,987.91
2024-04-23T07:19:02.481Z,987.90
2024-04-23T07:20:00.997Z,987.89
2024-04-23T07:21:00.862Z,987.86
2024-04-23T07:22:00.854Z,987.84
2024-04-23T07:23:00.864Z,987.84
2024-04-23T07:24:00.868Z,987.83
2024-04-23T07:25:00.830Z,987.82
2024-04-23T07:26:00.954Z,987.81
2024-04-23T07:27:00.819Z,987.81
2024-04-23T07:28:00.795Z,987.79
2024-04-23T07:29:00.958Z,987.76
2024-04-23T07:30:00.835Z,987.74
2024-04-23T07:31:00.783Z,987.76
2024-04-23T07:32:00.868Z,987.76
2024-04-23T07:33:00.915Z,987.76
2024-04-23T07:34:00.761Z,987.78
2024-04-23T07:35:00.880Z,987.78
2024-04-23T07:36:00.743Z,987.77
2024-04-23T07:37:00.722Z,987.76
2024-04-23T07:38:00.798Z,987.76
2024-04-23T07:39:00.704Z,987.76
2024-04-23T07:40:00.703Z,987.73
2024-04-23T07:41:01.024Z,987.76
2024-04-23T07:42:00.656Z,987.76
2024-04-23T07:43:00.651Z,987.73
2024-04-23T07:44:00.755Z,987.75
2024-04-23T07:45:00.643Z,987.71
2024-04-23T07:46:00.606Z,987.71
2024-04-23T07:47:00.645Z,987.72
2024-04-23T07:48:00.778Z,987.67
2024-04-23T07:49:00.594Z,987.62
2024-04-23T07:50:00.705Z,987.67
2024-04-23T07:51:00.575Z,987.67
2024-04-23T07:52:00.611Z,987.66
2024-04-23T07:53:00.656Z,987.65
2024-04-23T07:54:00.559Z,987.62
2024-04-23T07:55:00.527Z,987.63
2024-04-23T07:56:00.630Z,987.61
2024-04-23T07:57:00.519Z,987.62
2024-04-23T07:58:00.485Z,987.58
2024-04-23T07:59:00.592Z,987.55
2024-04-23T08:00:00.601Z,987.61
2024-04-23T08:01:00.477Z,987.59
2024-04-23T08:02:00.579Z,987.52
2024-04-23T08:03:00.761Z,987.49
2024-04-23T08:04:00.514Z,987.49
2024-04-23T08:05:00.596Z,987.47
2024-04-23T08:06:00.446Z,987.50
2024-04-23T08:07:00.445Z,987.47
2024-04-23T08:08:00.470Z,987.48
2024-04-23T08:09:00.471Z,987.48
2024-04-23T08:10:00.369Z,987.49
2024-04-23T08:11:00.419Z,987.48
2024-04-23T08:12:00.422Z,987.46
2024-04-23T08:13:00.367Z,987.48
2024-04-23T08:14:00.442Z,987.47
2024-04-23T08:15:00.359Z,987.45
2024-04-23T08:16:00.305Z,987.44
2024-04-23T08:17:00.394Z,987.45
2024-04-23T08:18:00.570Z,987.45
2024-04-23T08:19:00.372Z,987.44
2024-04-23T08:20:00.364Z,987.50
2024-04-23T08:21:00.257Z,987.50
2024-04-23T08:22:00.238Z,987.47
2024-04-23T08:23:00.395Z,987.45
2024-04-23T08:24:00.243Z,987.42
2024-04-23T08:25:00.277Z,987.41
2024-04-23T08:26:00.233Z,987.41
2024-04-23T08:27:00.186Z,987.41
2024-04-23T08:28:00.178Z,987.39
2024-04-23T08:29:00.216Z,987.40
2024-04-23T08:30:00.222Z,987.38
2024-04-23T08:31:00.171Z,987.38
2024-04-23T08:32:00.374Z,987.40
2024-04-23T08:33:00.485Z,987.40
2024-04-23T08:34:00.134Z,987.42
2024-04-23T08:35:00.310Z,987.40
2024-04-23T08:36:00.125Z,987.40
2024-04-23T08:37:00.113Z,987.36
2024-04-23T08:38:00.176Z,987.38
2024-04-23T08:39:00.112Z,987.38
2024-04-23T08:40:00.135Z,987.35
2024-04-23T08:41:00.145Z,987.34
2024-04-23T08:42:00.038Z,987.36
2024-04-23T08:43:00.023Z,987.38
2024-04-23T08:44:00.160Z,987.38
2024-04-23T08:45:00.030Z,987.33
2024-04-23T08:46:00.034Z,987.33
2024-04-23T08:47:00.078Z,987.33
2024-04-23T08:48:00.054Z,987.33
2024-04-23T08:48:59.984Z,987.31
2024-04-23T08:50:00.076Z,987.28
2024-04-23T08:50:59.943Z,987.30
2024-04-23T08:51:59.961Z,987.26
2024-04-23T08:52:59.984Z,987.26
2024-04-23T08:53:59.921Z,987.27
2024-04-23T08:54:59.933Z,987.30
2024-04-23T08:55:59.924Z,987.22
2024-04-23T08:56:59.883Z,987.25
2024-04-23T08:57:59.891Z,987.24
2024-04-23T08:58:59.879Z,987.26
2024-04-23T09:00:00.881Z,987.25
2024-04-23T09:00:59.925Z,987.24
2024-04-23T09:01:59.870Z,987.26
2024-04-23T09:02:59.882Z,987.25
2024-04-23T09:03:59.878Z,987.25
2024-04-23T09:04:59.818Z,987.23
2024-04-23T09:05:59.820Z,987.23
2024-04-23T09:06:59.804Z,987.19
2024-04-23T09:07:59.835Z,987.18
2024-04-23T09:08:59.779Z,987.19
2024-04-23T09:09:59.800Z,987.19
2024-04-23T09:10:59.817Z,987.17
2024-04-23T09:11:59.782Z,987.15
2024-04-23T09:12:59.731Z,987.15
2024-04-23T09:13:59.748Z,987.15
2024-04-23T09:14:59.729Z,987.14
2024-04-23T09:15:59.704Z,987.08
2024-04-23T09:16:59.736Z,987.04
2024-04-23T09:17:59.766Z,987.06
2024-04-23T09:18:59.674Z,987.03
2024-04-23T09:19:59.674Z,987.01
2024-04-23T09:20:59.667Z,987.00
2024-04-23T09:21:59.650Z,987.02
2024-04-23T09:22:59.657Z,987.00
2024-04-23T09:23:59.619Z,987.02
2024-04-23T09:24:59.598Z,986.99
2024-04-23T09:25:59.637Z,986.98
2024-04-23T09:26:59.578Z,986.98
2024-04-23T09:27:59.598Z,986.96
2024-04-23T09:28:59.611Z,986.98
2024-04-23T09:29:59.557Z,986.96
2024-04-23T09:30:59.584Z,986.95
2024-04-23T09:31:59.655Z,986.93
2024-04-23T09:32:59.668Z,986.92
2024-04-23T09:33:59.515Z,986.91
2024-04-23T09:34:59.580Z,986.88
2024-04-23T09:35:59.485Z,986.85
2024-04-23T09:36:59.488Z,986.86
2024-04-23T09:37:59.487Z,986.84
2024-04-23T09:38:59.527Z,986.84
2024-04-23T09:39:59.444Z,986.84
2024-04-23T09:40:59.465Z,986.83
2024-04-23T09:41:59.506Z,986.81
2024-04-23T09:42:59.436Z,986.81
2024-04-23T09:43:59.438Z,986.80
2024-04-23T09:44:59.413Z,986.81
2024-04-23T09:45:59.377Z,986.76
2024-04-23T09:46:59.406Z,986.73
2024-04-23T09:47:59.445Z,986.75
2024-04-23T09:48:59.365Z,986.72
2024-04-23T09:49:59.474Z,986.70
2024-04-23T09:50:59.352Z,986.68
2024-04-23T09:51:59.361Z,986.65
2024-04-23T09:52:59.338Z,986.64
2024-04-23T09:53:59.302Z,986.62
2024-04-23T09:54:59.288Z,986.59
2024-04-23T09:55:59.310Z,986.57
2024-04-23T09:56:59.298Z,986.53
2024-04-23T09:57:59.283Z,986.51
2024-04-23T09:58:59.357Z,986.49
2024-04-23T09:59:59.246Z,986.49
2024-04-23T10:00:59.246Z,986.49
2024-04-23T10:01:59.340Z,986.50
2024-04-23T10:02:59.310Z,986.47
2024-04-23T10:03:59.234Z,986.43
2024-04-23T10:04:59.418Z,986.41
2024-04-23T10:05:59.182Z,986.41
2024-04-23T10:06:59.203Z,986.39
2024-04-23T10:07:59.244Z,986.33
2024-04-23T10:08:59.177Z,986.30
2024-04-23T10:09:59.159Z,986.28
2024-04-23T10:10:59.249Z,986.32
2024-04-23T10:11:59.235Z,986.33
2024-04-23T10:12:59.120Z,986.30
2024-04-23T10:13:59.113Z,986.28
2024-04-23T10:14:59.097Z,986.24
2024-04-23T10:15:59.097Z,986.21
2024-04-23T10:16:59.181Z,986.24
2024-04-23T10:17:59.180Z,986.21
2024-04-23T10:18:59.066Z,986.17
2024-04-23T10:19:59.075Z,986.12
2024-04-23T10:20:59.030Z,986.18
2024-04-23T10:21:59.041Z,986.16
2024-04-23T10:22:59.061Z,986.14
2024-04-23T10:23:59.018Z,986.08
2024-04-23T10:24:59.048Z,986.08
2024-04-23T10:25:59.043Z,986.06
2024-04-23T10:26:58.970Z,986.05
2024-04-23T10:27:58.982Z,986.14
2024-04-23T10:28:59.026Z,986.13
2024-04-23T10:29:58.945Z,986.11
2024-04-23T10:30:58.939Z,986.11
2024-04-23T10:31:59.002Z,986.07
2024-04-23T10:32:58.984Z,986.05
2024-04-23T10:33:58.893Z,986.05
2024-04-23T10:34:58.952Z,986.04
2024-04-23T10:35:58.897Z,986.04
2024-04-23T10:36:58.879Z,986.05
2024-04-23T10:37:58.939Z,986.00
2024-04-23T10:38:58.878Z,986.00
2024-04-23T10:39:58.851Z,986.02
2024-04-23T10:40:59.371Z,986.00
2024-04-23T10:41:58.812Z,985.98
2024-04-23T10:42:58.820Z,985.95
2024-04-23T10:43:58.835Z,985.92
2024-04-23T10:44:58.820Z,985.90
2024-04-23T10:45:58.790Z,985.88
2024-04-23T10:46:58.858Z,985.85
2024-04-23T10:47:59.601Z,985.86
2024-04-23T10:48:58.813Z,985.86
2024-04-23T10:49:58.757Z,985.82
2024-04-23T10:50:58.725Z,985.81
2024-04-23T10:51:58.730Z,985.81
2024-04-23T10:52:58.803Z,985.82
2024-04-23T10:53:58.715Z,985.82
2024-04-23T10:54:58.697Z,985.78
2024-04-23T10:55:58.715Z,985.76
2024-04-23T10:56:58.664Z,985.74
2024-04-23T10:57:58.646Z,985.73
2024-04-23T10:58:58.744Z,985.71
2024-04-23T10:59:58.634Z,985.68
2024-04-23T11:00:58.706Z,985.66
2024-04-23T11:01:58.677Z,985.65
2024-04-23T11:02:58.696Z,985.63
2024-04-23T11:03:58.860Z,985.64
2024-04-23T11:04:58.882Z,985.61
2024-04-23T11:05:58.813Z,985.57
2024-04-23T11:06:58.564Z,985.55
2024-04-23T11:07:58.606Z,985.55
2024-04-23T11:08:58.565Z,985.50
2024-04-23T11:09:58.588Z,985.51
2024-04-23T11:10:58.586Z,985.51
2024-04-23T11:11:58.525Z,985.49
2024-04-23T11:12:58.489Z,985.46
2024-04-23T11:13:58.538Z,985.45
2024-04-23T11:14:58.524Z,985.44
2024-04-23T11:15:58.474Z,985.41
2024-04-23T11:16:58.531Z,985.36
2024-04-23T11:17:58.495Z,985.36
2024-04-23T11:18:58.567Z,985.36
2024-04-23T11:19:58.455Z,985.35
2024-04-23T11:20:58.573Z,985.37
2024-04-23T11:21:58.424Z,985.35
2024-04-23T11:22:58.449Z,985.32
2024-04-23T11:23:58.374Z,985.31
2024-04-23T11:24:58.443Z,985.28
2024-04-23T11:25:58.554Z,985.26
2024-04-23T11:26:58.347Z,985.24
2024-04-23T11:27:58.342Z,985.22
2024-04-23T11:28:58.438Z,985.23
2024-04-23T11:29:58.334Z,985.23
2024-04-23T11:30:58.495Z,985.23
2024-04-23T11:31:58.335Z,985.22
2024-04-23T11:32:58.653Z,985.22
2024-04-23T11:33:58.313Z,985.22
2024-04-23T11:34:58.362Z,985.21
2024-04-23T11:35:58.256Z,985.21
2024-04-23T11:36:58.264Z,985.18
2024-04-23T11:37:58.313Z,985.15
2024-04-23T11:38:58.237Z,985.15
2024-04-23T11:39:58.268Z,985.11
2024-04-23T11:40:58.253Z,985.11
2024-04-23T11:41:58.252Z,985.10
2024-04-23T11:42:58.175Z,985.08
2024-04-23T11:43:58.204Z,985.07
2024-04-23T11:44:58.222Z,985.08
2024-04-23T11:45:58.144Z,985.05
2024-04-23T11:46:58.239Z,985.05
2024-04-23T11:47:58.216Z,985.05
2024-04-23T11:48:58.118Z,985.00
2024-04-23T11:49:58.145Z,984.96
2024-04-23T11:50:58.101Z,984.94
2024-04-23T11:51:58.099Z,984.93
2024-04-23T11:52:58.119Z,984.91
2024-04-23T11:53:58.066Z,984.93
2024-04-23T11:54:58.076Z,984.95
2024-04-23T11:55:58.086Z,984.94
2024-04-23T11:56:58.091Z,984.93
2024-04-23T11:57:58.017Z,984.86
2024-04-23T11:58:58.036Z,984.86
2024-04-23T11:59:57.998Z,984.88
2024-04-23T12:00:58.018Z,984.85
2024-04-23T12:01:58.029Z,984.84
2024-04-23T12:02:58.040Z,984.84
2024-04-23T12:03:58.035Z,984.79
2024-04-23T12:04:58.046Z,984.79
2024-04-23T12:05:58.053Z,984.76
2024-04-23T12:06:57.985Z,984.77
2024-04-23T12:07:58.003Z,984.75
2024-04-23T12:08:57.924Z,984.75
2024-04-23T12:09:57.890Z,984.74
2024-04-23T12:10:57.944Z,984.72
2024-04-23T12:11:57.914Z,984.72
2024-04-23T12:12:57.895Z,984.73
2024-04-23T12:13:57.876Z,984.73
2024-04-23T12:14:57.849Z,984.73
2024-04-23T12:15:57.848Z,984.70
2024-04-23T12:16:57.871Z,984.69
2024-04-23T12:17:57.877Z,984.68
2024-04-23T12:18:57.821Z,984.66
2024-04-23T12:19:57.810Z,984.66
2024-04-23T12:20:57.782Z,984.67
2024-04-23T12:21:57.773Z,984.64
2024-04-23T12:22:57.797Z,984.64
2024-04-23T12:23:57.746Z,984.59
2024-04-23T12:24:57.745Z,984.58
2024-04-23T12:25:57.779Z,984.57
2024-04-23T12:26:57.722Z,984.58
2024-04-23T12:27:57.729Z,984.59
2024-04-23T12:28:57.779Z,984.58
2024-04-23T12:29:57.691Z,984.58
2024-04-23T12:30:57.674Z,984.58